createdAt,value
2023-02-08T00:00:02.567Z,0.20
2023-02-08T00:05:06.460Z,0.20
2023-02-08T00:10:10.689Z,0.20
2023-02-08T00:15:13.017Z,0.20
2023-02-08T00:20:17.098Z,0.30
2023-02-08T00:25:19.366Z,0.20
2023-02-08T00:30:22.030Z,0.20
2023-02-08T00:35:25.271Z,0.20
2023-02-08T00:40:27.769Z,0.20
2023-02-08T00:45:30.052Z,0.10
2023-02-08T00:50:33.644Z,0.10
2023-02-08T00:55:35.678Z,0.10
2023-02-08T01:00:38.418Z,0.00
2023-02-08T01:05:42.180Z,0.00
2023-02-08T01:10:44.944Z,-0.10
2023-02-08T01:15:47.123Z,-0.20
2023-02-08T01:20:50.962Z,-0.20
2023-02-08T01:25:53.056Z,-0.20
2023-02-08T01:30:55.375Z,-0.40
2023-02-08T01:35:59.175Z,-0.40
2023-02-08T01:41:01.619Z,-0.30
2023-02-08T01:46:03.725Z,-0.40
2023-02-08T01:51:13.228Z,-0.60
2023-02-08T01:56:19.653Z,-0.70
2023-02-08T02:01:22.426Z,-0.80
2023-02-08T02:06:28.886Z,-1.00
2023-02-08T02:11:31.377Z,-1.20
2023-02-08T02:16:33.757Z,-1.40
2023-02-08T02:21:52.444Z,-1.60
2023-02-08T02:27:21.003Z,-1.70
2023-02-08T02:32:37.224Z,-1.80
2023-02-08T02:37:49.767Z,-1.90
2023-02-08T02:43:19.799Z,-2.20
2023-02-08T02:48:31.205Z,-2.40
2023-02-08T02:53:42.153Z,-2.40
2023-02-08T02:58:46.041Z,-2.50
2023-02-08T03:03:51.060Z,-2.40
2023-02-08T03:09:08.504Z,-2.30
2023-02-08T03:14:23.356Z,-2.50
2023-02-08T03:19:32.695Z,-2.50
2023-02-08T03:24:43.629Z,-2.70
2023-02-08T03:29:52.366Z,-2.90
2023-02-08T03:34:59.907Z,-2.90
2023-02-08T03:40:07.731Z,-3.10
2023-02-08T03:45:16.988Z,-3.20
2023-02-08T03:50:22.914Z,-3.30
2023-02-08T03:55:28.369Z,-3.40
2023-02-08T04:00:32.488Z,-3.40
2023-02-08T04:05:36.111Z,-3.50
2023-02-08T04:10:38.323Z,-3.60
2023-02-08T04:15:40.613Z,-3.80
2023-02-08T04:20:44.245Z,-3.90
2023-02-08T04:25:46.339Z,-3.90
2023-02-08T04:30:48.992Z,-3.90
2023-02-08T04:35:52.516Z,-3.70
2023-02-08T04:40:55.045Z,-3.80
2023-02-08T04:45:57.012Z,-3.60
2023-02-08T04:51:01.891Z,-3.80
2023-02-08T04:56:03.958Z,-3.80
2023-02-08T05:01:08.103Z,-3.60
2023-02-08T05:06:11.992Z,-3.50
2023-02-08T05:11:13.817Z,-3.30
2023-02-08T05:16:17.202Z,-3.40
2023-02-08T05:21:24.014Z,-3.50
2023-02-08T05:26:26.228Z,-3.60
2023-02-08T05:31:28.818Z,-3.60
2023-02-08T05:36:32.888Z,-3.50
2023-02-08T05:41:35.224Z,-3.50
2023-02-08T05:46:38.455Z,-3.60
2023-02-08T05:51:41.853Z,-3.90
2023-02-08T05:56:44.333Z,-4.00
2023-02-08T06:01:46.398Z,-4.10
2023-02-08T06:06:49.767Z,-4.10
2023-02-08T06:11:52.009Z,-4.10
2023-02-08T06:16:54.312Z,-3.90
2023-02-08T06:21:57.992Z,-3.80
2023-02-08T06:27:00.028Z,-3.70
2023-02-08T06:32:02.530Z,-3.80
2023-02-08T06:37:06.211Z,-4.00
2023-02-08T06:42:08.130Z,-4.30
2023-02-08T06:47:10.087Z,-3.80
2023-02-08T06:52:13.356Z,-3.80
2023-02-08T06:57:15.824Z,-4.00
2023-02-08T07:02:19.809Z,-4.10
2023-02-08T07:07:23.492Z,-4.20
2023-02-08T07:12:25.515Z,-4.20
2023-02-08T07:17:27.512Z,-4.10
2023-02-08T07:22:31.096Z,-4.00
2023-02-08T07:27:33.566Z,-3.90
2023-02-08T07:32:35.561Z,-3.80
2023-02-08T07:37:39.432Z,-4.00
2023-02-08T07:42:41.630Z,-4.10
2023-02-08T07:47:43.341Z,-4.20
2023-02-08T07:52:47.690Z,-4.20
2023-02-08T07:57:51.291Z,-4.10
2023-02-08T08:02:53.909Z,-3.90
2023-02-08T08:07:57.513Z,-3.70
2023-02-08T08:12:59.567Z,-2.90
2023-02-08T08:18:01.489Z,-2.20
2023-02-08T08:23:05.536Z,-1.50
2023-02-08T08:28:07.515Z,-0.90
2023-02-08T08:33:09.811Z,-0.50
2023-02-08T08:38:13.432Z,-0.30
2023-02-08T08:43:16.163Z,0.10
2023-02-08T08:48:18.306Z,0.20
2023-02-08T08:53:22.253Z,0.00
2023-02-08T08:58:24.662Z,0.20
2023-02-08T09:03:27.281Z,0.70
2023-02-08T09:08:30.899Z,0.80
2023-02-08T09:13:34.498Z,0.80
2023-02-08T09:18:36.335Z,1.30
2023-02-08T09:23:40.326Z,1.80
2023-02-08T09:28:43.326Z,2.30
2023-02-08T09:33:45.649Z,2.90
2023-02-08T09:38:51.003Z,3.00
2023-02-08T09:44:01.404Z,3.80
2023-02-08T09:49:12.028Z,5.10
2023-02-08T09:54:21.280Z,6.30
2023-02-08T09:59:27.103Z,7.20
2023-02-08T10:04:37.660Z,7.40
2023-02-08T10:09:41.522Z,7.50
2023-02-08T10:15:07.064Z,7.80
2023-02-08T10:20:20.101Z,8.50
2023-02-08T10:25:36.775Z,8.80
2023-02-08T10:30:47.629Z,8.20
2023-02-08T10:35:52.211Z,8.30
2023-02-08T10:41:00.003Z,9.00
2023-02-08T10:46:09.065Z,8.40
2023-02-08T10:51:13.581Z,9.30
2023-02-08T10:56:42.648Z,11.20
2023-02-08T11:01:46.505Z,10.60
2023-02-08T11:06:50.710Z,10.50
2023-02-08T11:11:54.733Z,9.90
2023-02-08T11:16:58.695Z,10.10
2023-02-08T11:22:01.802Z,10.60
2023-02-08T11:27:15.657Z,11.00
2023-02-08T11:32:20.069Z,8.00
2023-02-08T11:37:26.807Z,9.30
2023-02-08T11:42:35.968Z,9.60
2023-02-08T11:47:39.289Z,10.80
2023-02-08T11:52:46.487Z,9.50
2023-02-08T11:58:02.185Z,10.70
2023-02-08T12:03:09.764Z,12.30
2023-02-08T12:08:19.853Z,10.50
2023-02-08T12:13:40.762Z,11.30
2023-02-08T12:18:56.900Z,12.90
2023-02-08T12:24:04.372Z,8.60
2023-02-08T12:29:45.653Z,10.80
2023-02-08T12:35:37.033Z,12.40
2023-02-08T12:40:52.801Z,12.60
2023-02-08T12:46:20.553Z,13.80
2023-02-08T12:51:29.338Z,14.30
2023-02-08T12:56:37.940Z,14.90
2023-02-08T13:01:46.241Z,15.50
2023-02-08T13:06:53.110Z,16.10
2023-02-08T13:12:01.093Z,13.70
2023-02-08T13:17:11.414Z,13.10
2023-02-08T13:22:15.992Z,14.50
2023-02-08T13:27:20.211Z,13.40
2023-02-08T13:32:30.596Z,14.90
2023-02-08T13:37:34.725Z,16.10
2023-02-08T13:42:43.018Z,13.40
2023-02-08T13:47:53.105Z,13.20
2023-02-08T13:52:55.742Z,13.00
2023-02-08T13:57:58.959Z,14.70
2023-02-08T14:03:04.154Z,15.60
2023-02-08T14:08:13.486Z,16.40
2023-02-08T14:13:28.342Z,16.30
2023-02-08T14:18:32.209Z,17.10
2023-02-08T14:23:39.549Z,17.10
2023-02-08T14:28:49.046Z,16.20
2023-02-08T14:33:57.584Z,15.40
2023-02-08T14:39:09.605Z,14.90
2023-02-08T14:44:54.396Z,15.80
2023-02-08T14:50:12.762Z,15.70
2023-02-08T14:55:21.026Z,15.10
2023-02-08T15:00:25.716Z,14.20
2023-02-08T15:05:32.612Z,13.50
2023-02-08T15:10:36.377Z,12.60
2023-02-08T15:15:42.267Z,11.70
2023-02-08T15:20:46.835Z,11.00
2023-02-08T15:25:57.489Z,9.70
2023-02-08T15:31:02.161Z,8.20
2023-02-08T15:36:09.681Z,7.80
2023-02-08T15:41:14.568Z,6.90
2023-02-08T15:46:24.438Z,6.90
2023-02-08T15:51:30.375Z,6.40
2023-02-08T15:56:39.486Z,5.90
2023-02-08T16:01:47.225Z,5.00
2023-02-08T16:06:53.605Z,4.20
2023-02-08T16:11:59.478Z,3.60
2023-02-08T16:17:01.856Z,3.00
2023-02-08T16:22:27.163Z,2.40
2023-02-08T16:27:32.125Z,2.00
2023-02-08T16:32:39.952Z,1.70
2023-02-08T16:37:44.027Z,1.40
2023-02-08T16:42:47.377Z,1.10
2023-02-08T16:47:53.569Z,1.00
2023-02-08T16:53:00.295Z,0.80
2023-02-08T16:58:03.436Z,0.60
2023-02-08T17:03:06.104Z,0.40
2023-02-08T17:08:13.981Z,0.20
2023-02-08T17:13:20.634Z,0.00
2023-02-08T17:18:23.723Z,-0.10
2023-02-08T17:23:28.073Z,-0.20
2023-02-08T17:28:31.920Z,-0.20
2023-02-08T17:33:37.316Z,-0.20
2023-02-08T17:38:42.826Z,-0.30
2023-02-08T17:43:45.071Z,-0.50
2023-02-08T17:48:48.488Z,-0.60
2023-02-08T17:53:53.236Z,-0.70
2023-02-08T17:58:58.025Z,-0.70
2023-02-08T18:04:02.768Z,-0.90
2023-02-08T18:09:07.832Z,-0.90
2023-02-08T18:14:11.713Z,-0.80
2023-02-08T18:19:15.783Z,-0.70
2023-02-08T18:24:23.869Z,-0.70
2023-02-08T18:29:30.940Z,-0.70
2023-02-08T18:34:35.425Z,-0.80
2023-02-08T18:39:44.420Z,-0.90
2023-02-08T18:44:49.212Z,-0.80
2023-02-08T18:49:56.209Z,-0.80
2023-02-08T18:55:01.461Z,-0.90
2023-02-08T19:00:08.268Z,-1.00
2023-02-08T19:05:12.370Z,-1.30
2023-02-08T19:10:20.217Z,-1.50
2023-02-08T19:15:24.808Z,-1.70
2023-02-08T19:20:28.591Z,-1.80
2023-02-08T19:25:38.033Z,-1.90
2023-02-08T19:30:42.193Z,-2.00
2023-02-08T19:35:46.598Z,-2.20
2023-02-08T19:40:56.945Z,-2.10
2023-02-08T19:46:01.262Z,-2.10
2023-02-08T19:51:05.358Z,-2.20
2023-02-08T19:56:14.521Z,-2.30
2023-02-08T20:01:20.770Z,-2.40
2023-02-08T20:06:26.661Z,-2.40
2023-02-08T20:11:37.088Z,-2.60
2023-02-08T20:16:42.600Z,-2.70
2023-02-08T20:21:46.736Z,-2.80
2023-02-08T20:26:52.561Z,-2.80
2023-02-08T20:31:57.982Z,-2.70
2023-02-08T20:37:07.477Z,-2.40
2023-02-08T20:42:14.288Z,-2.50
2023-02-08T20:47:22.652Z,-2.70
2023-02-08T20:52:26.607Z,-2.90
2023-02-08T20:57:32.022Z,-3.20
2023-02-08T21:02:35.872Z,-3.20
2023-02-08T21:07:40.832Z,-3.20
2023-02-08T21:12:45.237Z,-2.80
2023-02-08T21:17:48.205Z,-3.00
2023-02-08T21:22:52.636Z,-3.00
2023-02-08T21:27:56.480Z,-3.10
2023-02-08T21:32:58.909Z,-3.10
2023-02-08T21:38:02.708Z,-3.10
2023-02-08T21:43:06.438Z,-3.40
2023-02-08T21:48:08.998Z,-3.50
2023-02-08T21:53:30.296Z,-3.50
2023-02-08T21:58:33.756Z,-3.70
2023-02-08T22:03:35.940Z,-3.60
2023-02-08T22:08:38.415Z,-3.30
2023-02-08T22:13:44.160Z,-3.40
2023-02-08T22:18:46.366Z,-3.50
2023-02-08T22:23:48.632Z,-3.60
2023-02-08T22:28:52.112Z,-3.40
2023-02-08T22:33:55.106Z,-3.40
2023-02-08T22:38:57.803Z,-3.60
2023-02-08T22:44:01.357Z,-3.80
2023-02-08T22:49:03.884Z,-3.90
2023-02-08T22:54:06.467Z,-3.90
2023-02-08T22:59:10.404Z,-3.80
2023-02-08T23:04:12.617Z,-3.90
2023-02-08T23:09:14.882Z,-3.90
2023-02-08T23:14:19.059Z,-3.90
2023-02-08T23:19:21.495Z,-3.80
2023-02-08T23:24:23.687Z,-3.80
2023-02-08T23:29:27.415Z,-4.00
2023-02-08T23:34:29.672Z,-4.20
2023-02-08T23:39:34.644Z,-4.40
2023-02-08T23:44:38.419Z,-4.50
2023-02-08T23:49:40.867Z,-4.50
2023-02-08T23:54:43.416Z,-4.60
2023-02-08T23:59:47.154Z,-4.60
